sensor_id;sensor_type;location;lat;lon;timestamp;P1;durP1;ratioP1;P2;durP2;ratioP2
72801;SDS011;61891;55.818;37.084;2022-11-20T00:00:54;12.88;;;5.45;;
72801;SDS011;61891;55.818;37.084;2022-11-20T00:03:20;15.57;;;7.20;;
72801;SDS011;61891;55.818;37.084;2022-11-20T00:05:46;13.05;;;6.68;;
72801;SDS011;61891;55.818;37.084;2022-11-20T00:08:11;15.98;;;6.07;;
72801;SDS011;61891;55.818;37.084;2022-11-20T00:10:38;17.02;;;8.13;;
72801;SDS011;61891;55.818;37.084;2022-11-20T00:15:30;12.73;;;6.07;;
72801;SDS011;61891;55.818;37.084;2022-11-20T00:17:56;11.75;;;5.68;;
72801;SDS011;61891;55.818;37.084;2022-11-20T00:20:22;11.93;;;5.80;;
72801;SDS011;61891;55.818;37.084;2022-11-20T00:22:48;12.52;;;6.00;;
72801;SDS011;61891;55.818;37.084;2022-11-20T00:25:15;9.70;;;5.15;;
72801;SDS011;61891;55.818;37.084;2022-11-20T00:27:41;10.95;;;5.53;;
72801;SDS011;61891;55.818;37.084;2022-11-20T00:30:07;11.10;;;5.68;;
72801;SDS011;61891;55.818;37.084;2022-11-20T00:32:33;11.35;;;5.45;;
72801;SDS011;61891;55.818;37.084;2022-11-20T00:34:59;9.88;;;5.30;;
72801;SDS011;61891;55.818;37.084;2022-11-20T00:37:24;11.20;;;4.85;;
72801;SDS011;61891;55.818;37.084;2022-11-20T00:39:50;12.77;;;5.10;;
72801;SDS011;61891;55.818;37.084;2022-11-20T00:42:16;11.57;;;5.65;;
72801;SDS011;61891;55.818;37.084;2022-11-20T00:44:42;11.40;;;5.30;;
72801;SDS011;61891;55.818;37.084;2022-11-20T00:47:07;10.57;;;4.97;;
72801;SDS011;61891;55.818;37.084;2022-11-20T00:49:33;10.07;;;4.28;;
72801;SDS011;61891;55.818;37.084;2022-11-20T00:51:59;10.77;;;5.32;;
72801;SDS011;61891;55.818;37.084;2022-11-20T00:54:24;10.55;;;4.85;;
72801;SDS011;61891;55.818;37.084;2022-11-20T00:56:52;12.10;;;5.53;;
72801;SDS011;61891;55.818;37.084;2022-11-20T00:59:18;12.48;;;5.43;;
72801;SDS011;61891;55.818;37.084;2022-11-20T01:01:44;11.43;;;5.80;;
72801;SDS011;61891;55.818;37.084;2022-11-20T01:04:10;13.48;;;6.30;;
72801;SDS011;61891;55.818;37.084;2022-11-20T01:06:37;12.85;;;6.28;;
72801;SDS011;61891;55.818;37.084;2022-11-20T01:09:11;13.05;;;6.32;;
72801;SDS011;61891;55.818;37.084;2022-11-20T01:11:39;11.60;;;5.93;;
72801;SDS011;61891;55.818;37.084;2022-11-20T01:14:08;11.65;;;6.40;;
72801;SDS011;61891;55.818;37.084;2022-11-20T01:16:37;13.80;;;6.47;;
72801;SDS011;61891;55.818;37.084;2022-11-20T01:19:06;13.27;;;6.22;;
72801;SDS011;61891;55.818;37.084;2022-11-20T01:21:36;11.93;;;5.97;;
72801;SDS011;61891;55.818;37.084;2022-11-20T01:24:03;12.18;;;5.65;;
72801;SDS011;61891;55.818;37.084;2022-11-20T01:26:31;12.23;;;6.10;;
72801;SDS011;61891;55.818;37.084;2022-11-20T01:28:58;12.05;;;5.60;;
72801;SDS011;61891;55.818;37.084;2022-11-20T01:31:32;12.57;;;5.60;;
72801;SDS011;61891;55.818;37.084;2022-11-20T01:34:02;11.20;;;4.70;;
72801;SDS011;61891;55.818;37.084;2022-11-20T01:36:30;12.15;;;5.38;;
72801;SDS011;61891;55.818;37.084;2022-11-20T01:38:58;11.15;;;5.50;;
72801;SDS011;61891;55.818;37.084;2022-11-20T01:41:26;11.52;;;6.00;;
72801;SDS011;61891;55.818;37.084;2022-11-20T01:47:04;11.77;;;5.72;;
72801;SDS011;61891;55.818;37.084;2022-11-20T01:49:33;11.52;;;5.65;;
72801;SDS011;61891;55.818;37.084;2022-11-20T01:52:12;9.50;;;5.22;;
72801;SDS011;61891;55.818;37.084;2022-11-20T01:54:55;10.93;;;5.07;;
72801;SDS011;61891;55.818;37.084;2022-11-20T01:57:25;11.57;;;4.63;;
72801;SDS011;61891;55.818;37.084;2022-11-20T02:00:04;10.30;;;4.28;;
72801;SDS011;61891;55.818;37.084;2022-11-20T02:02:39;10.75;;;5.43;;
72801;SDS011;61891;55.818;37.084;2022-11-20T02:05:11;10.68;;;5.47;;
72801;SDS011;61891;55.818;37.084;2022-11-20T02:07:47;11.13;;;5.13;;
72801;SDS011;61891;55.818;37.084;2022-11-20T02:10:14;10.55;;;5.07;;
72801;SDS011;61891;55.818;37.084;2022-11-20T02:12:40;11.48;;;5.57;;
72801;SDS011;61891;55.818;37.084;2022-11-20T02:15:44;11.43;;;5.60;;
72801;SDS011;61891;55.818;37.084;2022-11-20T02:18:11;10.75;;;4.70;;
72801;SDS011;61891;55.818;37.084;2022-11-20T02:20:40;11.15;;;5.47;;
72801;SDS011;61891;55.818;37.084;2022-11-20T02:23:21;11.23;;;4.88;;
72801;SDS011;61891;55.818;37.084;2022-11-20T02:25:53;9.75;;;4.60;;
72801;SDS011;61891;55.818;37.084;2022-11-20T02:28:21;10.85;;;5.05;;
72801;SDS011;61891;55.818;37.084;2022-11-20T02:30:47;10.60;;;5.50;;
72801;SDS011;61891;55.818;37.084;2022-11-20T02:33:13;9.68;;;4.35;;
72801;SDS011;61891;55.818;37.084;2022-11-20T02:35:39;11.38;;;4.18;;
72801;SDS011;61891;55.818;37.084;2022-11-20T02:38:07;10.25;;;4.70;;
72801;SDS011;61891;55.818;37.084;2022-11-20T02:40:33;10.70;;;4.40;;
72801;SDS011;61891;55.818;37.084;2022-11-20T02:42:59;8.98;;;4.80;;
72801;SDS011;61891;55.818;37.084;2022-11-20T02:45:25;10.25;;;4.90;;
72801;SDS011;61891;55.818;37.084;2022-11-20T02:47:50;10.38;;;5.90;;
72801;SDS011;61891;55.818;37.084;2022-11-20T02:50:16;12.27;;;5.57;;
72801;SDS011;61891;55.818;37.084;2022-11-20T02:52:42;11.00;;;5.25;;
72801;SDS011;61891;55.818;37.084;2022-11-20T02:55:08;12.18;;;4.88;;
72801;SDS011;61891;55.818;37.084;2022-11-20T02:57:34;10.40;;;4.72;;
72801;SDS011;61891;55.818;37.084;2022-11-20T03:00:00;10.80;;;5.65;;
72801;SDS011;61891;55.818;37.084;2022-11-20T03:02:29;11.05;;;5.05;;
72801;SDS011;61891;55.818;37.084;2022-11-20T03:04:55;8.15;;;4.57;;
72801;SDS011;61891;55.818;37.084;2022-11-20T03:07:21;12.20;;;5.78;;
72801;SDS011;61891;55.818;37.084;2022-11-20T03:09:46;11.35;;;5.10;;
72801;SDS011;61891;55.818;37.084;2022-11-20T03:12:12;10.30;;;5.40;;
72801;SDS011;61891;55.818;37.084;2022-11-20T03:14:38;10.52;;;5.32;;
72801;SDS011;61891;55.818;37.084;2022-11-20T03:17:04;12.13;;;5.68;;
72801;SDS011;61891;55.818;37.084;2022-11-20T03:19:30;9.38;;;5.07;;
72801;SDS011;61891;55.818;37.084;2022-11-20T03:21:55;12.27;;;5.85;;
72801;SDS011;61891;55.818;37.084;2022-11-20T03:24:21;14.13;;;5.55;;
72801;SDS011;61891;55.818;37.084;2022-11-20T03:26:50;12.38;;;5.57;;
72801;SDS011;61891;55.818;37.084;2022-11-20T03:29:15;10.77;;;5.28;;
72801;SDS011;61891;55.818;37.084;2022-11-20T03:31:41;11.45;;;5.07;;
72801;SDS011;61891;55.818;37.084;2022-11-20T03:34:07;12.07;;;5.35;;
72801;SDS011;61891;55.818;37.084;2022-11-20T03:36:35;12.88;;;5.55;;
72801;SDS011;61891;55.818;37.084;2022-11-20T03:39:03;10.15;;;5.30;;
72801;SDS011;61891;55.818;37.084;2022-11-20T03:41:29;11.73;;;5.28;;
72801;SDS011;61891;55.818;37.084;2022-11-20T03:43:57;11.15;;;5.45;;
72801;SDS011;61891;55.818;37.084;2022-11-20T03:46:24;11.65;;;5.07;;
72801;SDS011;61891;55.818;37.084;2022-11-20T03:48:51;10.45;;;5.00;;
72801;SDS011;61891;55.818;37.084;2022-11-20T03:51:24;13.40;;;5.43;;
72801;SDS011;61891;55.818;37.084;2022-11-20T03:53:51;12.00;;;6.03;;
72801;SDS011;61891;55.818;37.084;2022-11-20T03:56:19;8.95;;;4.30;;
72801;SDS011;61891;55.818;37.084;2022-11-20T03:58:47;10.35;;;4.32;;
72801;SDS011;61891;55.818;37.084;2022-11-20T04:01:14;11.45;;;5.55;;
72801;SDS011;61891;55.818;37.084;2022-11-20T04:03:44;9.68;;;4.95;;
72801;SDS011;61891;55.818;37.084;2022-11-20T04:06:11;10.88;;;5.05;;
72801;SDS011;61891;55.818;37.084;2022-11-20T04:08:39;10.27;;;4.75;;
72801;SDS011;61891;55.818;37.084;2022-11-20T04:11:16;9.43;;;4.88;;
72801;SDS011;61891;55.818;37.084;2022-11-20T04:13:42;12.35;;;5.95;;
72801;SDS011;61891;55.818;37.084;2022-11-20T04:16:11;12.60;;;5.28;;
72801;SDS011;61891;55.818;37.084;2022-11-20T04:18:37;10.23;;;5.25;;
72801;SDS011;61891;55.818;37.084;2022-11-20T04:21:02;12.95;;;5.47;;
72801;SDS011;61891;55.818;37.084;2022-11-20T04:23:29;11.00;;;5.10;;
72801;SDS011;61891;55.818;37.084;2022-11-20T04:26:00;11.50;;;5.13;;
72801;SDS011;61891;55.818;37.084;2022-11-20T04:28:30;9.23;;;5.13;;
72801;SDS011;61891;55.818;37.084;2022-11-20T04:31:30;9.88;;;4.70;;
72801;SDS011;61891;55.818;37.084;2022-11-20T04:33:49;9.93;;;4.97;;
72801;SDS011;61891;55.818;37.084;2022-11-20T04:36:20;12.30;;;5.47;;
72801;SDS011;61891;55.818;37.084;2022-11-20T04:38:50;9.77;;;4.70;;
72801;SDS011;61891;55.818;37.084;2022-11-20T04:41:20;9.90;;;4.90;;
72801;SDS011;61891;55.818;37.084;2022-11-20T04:43:51;9.18;;;4.88;;
72801;SDS011;61891;55.818;37.084;2022-11-20T04:46:19;10.70;;;4.55;;
72801;SDS011;61891;55.818;37.084;2022-11-20T04:51:12;9.20;;;4.57;;
72801;SDS011;61891;55.818;37.084;2022-11-20T04:53:37;9.65;;;4.53;;
72801;SDS011;61891;55.818;37.084;2022-11-20T04:56:04;10.88;;;4.72;;
72801;SDS011;61891;55.818;37.084;2022-11-20T04:58:32;11.40;;;5.30;;
72801;SDS011;61891;55.818;37.084;2022-11-20T05:01:02;10.27;;;5.00;;
72801;SDS011;61891;55.818;37.084;2022-11-20T05:03:28;9.80;;;5.10;;
72801;SDS011;61891;55.818;37.084;2022-11-20T05:05:54;12.90;;;5.18;;
72801;SDS011;61891;55.818;37.084;2022-11-20T05:08:19;10.27;;;4.68;;
72801;SDS011;61891;55.818;37.084;2022-11-20T05:10:45;10.18;;;5.20;;
72801;SDS011;61891;55.818;37.084;2022-11-20T05:13:12;9.63;;;5.20;;
72801;SDS011;61891;55.818;37.084;2022-11-20T05:15:38;11.02;;;5.13;;
72801;SDS011;61891;55.818;37.084;2022-11-20T05:18:04;9.00;;;4.60;;
72801;SDS011;61891;55.818;37.084;2022-11-20T05:20:29;10.88;;;5.25;;
72801;SDS011;61891;55.818;37.084;2022-11-20T05:22:58;10.57;;;4.90;;
72801;SDS011;61891;55.818;37.084;2022-11-20T05:25:24;10.23;;;5.15;;
72801;SDS011;61891;55.818;37.084;2022-11-20T05:27:50;9.90;;;4.82;;
72801;SDS011;61891;55.818;37.084;2022-11-20T05:30:16;11.98;;;5.60;;
72801;SDS011;61891;55.818;37.084;2022-11-20T05:32:42;10.23;;;4.65;;
72801;SDS011;61891;55.818;37.084;2022-11-20T05:35:07;12.57;;;5.57;;
72801;SDS011;61891;55.818;37.084;2022-11-20T05:37:33;10.07;;;5.28;;
72801;SDS011;61891;55.818;37.084;2022-11-20T05:39:59;8.50;;;4.45;;
72801;SDS011;61891;55.818;37.084;2022-11-20T05:42:25;11.00;;;5.15;;
72801;SDS011;61891;55.818;37.084;2022-11-20T05:45:00;11.07;;;5.47;;
72801;SDS011;61891;55.818;37.084;2022-11-20T05:47:27;11.05;;;5.68;;
72801;SDS011;61891;55.818;37.084;2022-11-20T05:49:56;9.35;;;4.93;;
72801;SDS011;61891;55.818;37.084;2022-11-20T05:52:22;14.52;;;5.95;;
72801;SDS011;61891;55.818;37.084;2022-11-20T05:54:47;10.90;;;5.53;;
72801;SDS011;61891;55.818;37.084;2022-11-20T05:57:13;11.77;;;5.70;;
72801;SDS011;61891;55.818;37.084;2022-11-20T05:59:39;11.52;;;5.65;;
72801;SDS011;61891;55.818;37.084;2022-11-20T06:02:05;14.07;;;5.80;;
72801;SDS011;61891;55.818;37.084;2022-11-20T06:04:30;9.93;;;4.72;;
72801;SDS011;61891;55.818;37.084;2022-11-20T06:06:56;14.02;;;6.63;;
72801;SDS011;61891;55.818;37.084;2022-11-20T06:09:22;11.90;;;5.43;;
72801;SDS011;61891;55.818;37.084;2022-11-20T06:11:48;14.25;;;6.05;;
72801;SDS011;61891;55.818;37.084;2022-11-20T06:14:13;9.18;;;4.43;;
72801;SDS011;61891;55.818;37.084;2022-11-20T06:16:39;11.15;;;5.93;;
72801;SDS011;61891;55.818;37.084;2022-11-20T06:19:05;11.85;;;5.03;;
72801;SDS011;61891;55.818;37.084;2022-11-20T06:21:30;9.05;;;4.50;;
72801;SDS011;61891;55.818;37.084;2022-11-20T06:23:59;12.35;;;5.65;;
72801;SDS011;61891;55.818;37.084;2022-11-20T06:26:26;10.77;;;4.80;;
72801;SDS011;61891;55.818;37.084;2022-11-20T06:28:53;11.20;;;5.88;;
72801;SDS011;61891;55.818;37.084;2022-11-20T06:31:22;13.30;;;5.47;;
72801;SDS011;61891;55.818;37.084;2022-11-20T06:33:49;12.93;;;5.75;;
72801;SDS011;61891;55.818;37.084;2022-11-20T06:36:16;11.38;;;5.25;;
72801;SDS011;61891;55.818;37.084;2022-11-20T06:38:44;12.50;;;7.88;;
72801;SDS011;61891;55.818;37.084;2022-11-20T06:41:11;11.88;;;5.60;;
72801;SDS011;61891;55.818;37.084;2022-11-20T06:43:39;12.20;;;5.65;;
72801;SDS011;61891;55.818;37.084;2022-11-20T06:46:05;11.60;;;5.90;;
72801;SDS011;61891;55.818;37.084;2022-11-20T06:48:31;13.63;;;6.40;;
72801;SDS011;61891;55.818;37.084;2022-11-20T06:50:57;13.23;;;6.80;;
72801;SDS011;61891;55.818;37.084;2022-11-20T06:53:23;13.02;;;6.60;;
72801;SDS011;61891;55.818;37.084;2022-11-20T06:55:49;10.88;;;6.60;;
72801;SDS011;61891;55.818;37.084;2022-11-20T06:58:21;13.07;;;6.20;;
72801;SDS011;61891;55.818;37.084;2022-11-20T07:00:50;13.98;;;6.50;;
72801;SDS011;61891;55.818;37.084;2022-11-20T07:03:15;12.88;;;5.80;;
72801;SDS011;61891;55.818;37.084;2022-11-20T07:05:41;12.38;;;5.80;;
72801;SDS011;61891;55.818;37.084;2022-11-20T07:08:07;10.63;;;5.43;;
72801;SDS011;61891;55.818;37.084;2022-11-20T07:10:33;14.50;;;6.35;;
72801;SDS011;61891;55.818;37.084;2022-11-20T07:12:59;11.60;;;6.38;;
72801;SDS011;61891;55.818;37.084;2022-11-20T07:15:25;15.07;;;5.88;;
72801;SDS011;61891;55.818;37.084;2022-11-20T07:17:51;9.63;;;4.32;;
72801;SDS011;61891;55.818;37.084;2022-11-20T07:20:17;12.60;;;6.72;;
72801;SDS011;61891;55.818;37.084;2022-11-20T07:22:43;15.95;;;5.90;;
72801;SDS011;61891;55.818;37.084;2022-11-20T07:25:09;15.60;;;6.13;;
72801;SDS011;61891;55.818;37.084;2022-11-20T07:27:35;16.85;;;5.20;;
72801;SDS011;61891;55.818;37.084;2022-11-20T07:32:29;11.73;;;5.30;;
72801;SDS011;61891;55.818;37.084;2022-11-20T07:34:58;12.50;;;6.28;;
72801;SDS011;61891;55.818;37.084;2022-11-20T07:37:24;12.50;;;5.63;;
72801;SDS011;61891;55.818;37.084;2022-11-20T07:39:49;12.77;;;5.93;;
72801;SDS011;61891;55.818;37.084;2022-11-20T07:42:15;12.32;;;5.22;;
72801;SDS011;61891;55.818;37.084;2022-11-20T07:44:41;13.98;;;5.90;;
72801;SDS011;61891;55.818;37.084;2022-11-20T07:47:06;13.63;;;6.50;;
72801;SDS011;61891;55.818;37.084;2022-11-20T07:49:32;17.42;;;7.18;;
72801;SDS011;61891;55.818;37.084;2022-11-20T07:51:58;12.23;;;6.25;;
72801;SDS011;61891;55.818;37.084;2022-11-20T07:54:24;16.52;;;6.50;;
72801;SDS011;61891;55.818;37.084;2022-11-20T07:56:49;17.17;;;6.70;;
72801;SDS011;61891;55.818;37.084;2022-11-20T07:59:15;17.38;;;6.93;;
72801;SDS011;61891;55.818;37.084;2022-11-20T08:01:41;16.35;;;7.18;;
72801;SDS011;61891;55.818;37.084;2022-11-20T08:04:08;14.25;;;7.05;;
72801;SDS011;61891;55.818;37.084;2022-11-20T08:06:34;14.70;;;7.50;;
72801;SDS011;61891;55.818;37.084;2022-11-20T08:09:01;14.95;;;7.15;;
72801;SDS011;61891;55.818;37.084;2022-11-20T08:11:27;15.88;;;7.57;;
72801;SDS011;61891;55.818;37.084;2022-11-20T08:14:11;19.35;;;8.65;;
72801;SDS011;61891;55.818;37.084;2022-11-20T08:16:37;15.80;;;7.20;;
72801;SDS011;61891;55.818;37.084;2022-11-20T08:19:07;15.38;;;7.90;;
72801;SDS011;61891;55.818;37.084;2022-11-20T08:21:33;17.88;;;8.50;;
72801;SDS011;61891;55.818;37.084;2022-11-20T08:23:59;16.45;;;7.53;;
72801;SDS011;61891;55.818;37.084;2022-11-20T08:26:25;13.02;;;6.85;;
72801;SDS011;61891;55.818;37.084;2022-11-20T08:28:55;16.00;;;7.10;;
72801;SDS011;61891;55.818;37.084;2022-11-20T08:31:25;15.55;;;8.05;;
72801;SDS011;61891;55.818;37.084;2022-11-20T08:33:52;16.88;;;7.65;;
72801;SDS011;61891;55.818;37.084;2022-11-20T08:36:18;16.20;;;8.00;;
72801;SDS011;61891;55.818;37.084;2022-11-20T08:38:53;18.20;;;8.02;;
72801;SDS011;61891;55.818;37.084;2022-11-20T08:41:20;17.33;;;8.45;;
72801;SDS011;61891;55.818;37.084;2022-11-20T08:44:10;15.88;;;7.72;;
72801;SDS011;61891;55.818;37.084;2022-11-20T08:49:05;16.05;;;7.55;;
72801;SDS011;61891;55.818;37.084;2022-11-20T08:51:32;17.70;;;8.70;;
72801;SDS011;61891;55.818;37.084;2022-11-20T08:53:57;19.05;;;9.15;;
72801;SDS011;61891;55.818;37.084;2022-11-20T08:56:23;17.17;;;6.55;;
72801;SDS011;61891;55.818;37.084;2022-11-20T08:58:49;19.27;;;7.53;;
72801;SDS011;61891;55.818;37.084;2022-11-20T09:01:18;20.73;;;7.95;;
72801;SDS011;61891;55.818;37.084;2022-11-20T09:03:45;16.33;;;6.82;;
72801;SDS011;61891;55.818;37.084;2022-11-20T09:06:11;21.23;;;8.93;;
72801;SDS011;61891;55.818;37.084;2022-11-20T09:08:37;21.77;;;9.15;;
72801;SDS011;61891;55.818;37.084;2022-11-20T09:11:03;22.23;;;9.35;;
72801;SDS011;61891;55.818;37.084;2022-11-20T09:13:30;16.08;;;7.80;;
72801;SDS011;61891;55.818;37.084;2022-11-20T09:15:57;25.95;;;9.68;;
72801;SDS011;61891;55.818;37.084;2022-11-20T09:18:25;18.98;;;8.48;;
72801;SDS011;61891;55.818;37.084;2022-11-20T09:20:56;17.80;;;7.47;;
72801;SDS011;61891;55.818;37.084;2022-11-20T09:23:23;12.63;;;6.03;;
72801;SDS011;61891;55.818;37.084;2022-11-20T09:25:48;24.45;;;9.13;;
72801;SDS011;61891;55.818;37.084;2022-11-20T09:28:14;25.17;;;11.40;;
72801;SDS011;61891;55.818;37.084;2022-11-20T09:30:40;23.55;;;11.05;;
72801;SDS011;61891;55.818;37.084;2022-11-20T09:33:05;12.85;;;5.95;;
72801;SDS011;61891;55.818;37.084;2022-11-20T09:35:32;22.60;;;7.30;;
72801;SDS011;61891;55.818;37.084;2022-11-20T09:38:03;23.67;;;9.23;;
72801;SDS011;61891;55.818;37.084;2022-11-20T09:40:33;18.65;;;8.27;;
72801;SDS011;61891;55.818;37.084;2022-11-20T09:51:23;22.63;;;10.07;;
72801;SDS011;61891;55.818;37.084;2022-11-20T09:54:11;28.00;;;11.95;;
72801;SDS011;61891;55.818;37.084;2022-11-20T09:56:45;14.75;;;7.78;;
72801;SDS011;61891;55.818;37.084;2022-11-20T09:59:35;20.40;;;8.60;;
72801;SDS011;61891;55.818;37.084;2022-11-20T10:02:12;25.50;;;11.45;;
72801;SDS011;61891;55.818;37.084;2022-11-20T10:07:44;31.67;;;10.98;;
72801;SDS011;61891;55.818;37.084;2022-11-20T10:10:22;23.38;;;9.30;;
72801;SDS011;61891;55.818;37.084;2022-11-20T10:13:28;21.05;;;8.80;;
72801;SDS011;61891;55.818;37.084;2022-11-20T10:24:40;15.70;;;7.47;;
72801;SDS011;61891;55.818;37.084;2022-11-20T10:29:46;13.45;;;6.43;;
72801;SDS011;61891;55.818;37.084;2022-11-20T10:32:21;19.70;;;8.10;;
72801;SDS011;61891;55.818;37.084;2022-11-20T10:35:01;19.85;;;7.65;;
72801;SDS011;61891;55.818;37.084;2022-11-20T10:37:33;20.58;;;9.20;;
72801;SDS011;61891;55.818;37.084;2022-11-20T10:40:14;19.27;;;9.32;;
72801;SDS011;61891;55.818;37.084;2022-11-20T10:42:48;14.05;;;6.45;;
72801;SDS011;61891;55.818;37.084;2022-11-20T10:47:56;27.83;;;14.40;;
72801;SDS011;61891;55.818;37.084;2022-11-20T10:56:24;13.80;;;7.03;;
72801;SDS011;61891;55.818;37.084;2022-11-20T10:59:15;16.42;;;7.28;;
72801;SDS011;61891;55.818;37.084;2022-11-20T11:01:43;22.85;;;10.95;;
72801;SDS011;61891;55.818;37.084;2022-11-20T11:04:28;19.27;;;8.02;;
72801;SDS011;61891;55.818;37.084;2022-11-20T11:07:23;12.80;;;6.40;;
72801;SDS011;61891;55.818;37.084;2022-11-20T11:09:57;16.42;;;6.88;;
72801;SDS011;61891;55.818;37.084;2022-11-20T11:12:26;14.48;;;6.88;;
72801;SDS011;61891;55.818;37.084;2022-11-20T11:14:54;13.82;;;5.57;;
72801;SDS011;61891;55.818;37.084;2022-11-20T11:17:22;13.70;;;5.97;;
72801;SDS011;61891;55.818;37.084;2022-11-20T11:19:57;15.10;;;5.75;;
72801;SDS011;61891;55.818;37.084;2022-11-20T11:22:23;14.77;;;6.78;;
72801;SDS011;61891;55.818;37.084;2022-11-20T11:24:52;16.75;;;8.02;;
72801;SDS011;61891;55.818;37.084;2022-11-20T11:27:18;14.60;;;7.05;;
72801;SDS011;61891;55.818;37.084;2022-11-20T11:29:47;15.80;;;7.03;;
72801;SDS011;61891;55.818;37.084;2022-11-20T11:32:20;15.98;;;7.00;;
72801;SDS011;61891;55.818;37.084;2022-11-20T11:37:32;15.43;;;5.82;;
72801;SDS011;61891;55.818;37.084;2022-11-20T11:40:01;13.02;;;6.22;;
72801;SDS011;61891;55.818;37.084;2022-11-20T11:42:29;14.18;;;5.80;;
72801;SDS011;61891;55.818;37.084;2022-11-20T11:44:56;15.00;;;5.60;;
72801;SDS011;61891;55.818;37.084;2022-11-20T11:47:32;8.80;;;4.70;;
72801;SDS011;61891;55.818;37.084;2022-11-20T12:04:20;12.85;;;5.68;;
72801;SDS011;61891;55.818;37.084;2022-11-20T12:06:48;12.13;;;5.60;;
72801;SDS011;61891;55.818;37.084;2022-11-20T12:09:21;12.13;;;5.70;;
72801;SDS011;61891;55.818;37.084;2022-11-20T12:12:04;14.48;;;6.25;;
72801;SDS011;61891;55.818;37.084;2022-11-20T12:14:40;9.93;;;4.43;;
72801;SDS011;61891;55.818;37.084;2022-11-20T12:17:13;12.95;;;5.65;;
72801;SDS011;61891;55.818;37.084;2022-11-20T12:19:39;12.38;;;5.82;;
72801;SDS011;61891;55.818;37.084;2022-11-20T12:30:17;16.90;;;7.25;;
72801;SDS011;61891;55.818;37.084;2022-11-20T12:43:19;12.82;;;6.93;;
72801;SDS011;61891;55.818;37.084;2022-11-20T12:49:02;13.88;;;6.30;;
72801;SDS011;61891;55.818;37.084;2022-11-20T12:57:30;12.93;;;6.13;;
72801;SDS011;61891;55.818;37.084;2022-11-20T13:00:15;16.73;;;6.75;;
72801;SDS011;61891;55.818;37.084;2022-11-20T13:05:37;13.35;;;5.93;;
72801;SDS011;61891;55.818;37.084;2022-11-20T13:08:15;13.50;;;6.18;;
72801;SDS011;61891;55.818;37.084;2022-11-20T13:10:49;15.25;;;5.50;;
72801;SDS011;61891;55.818;37.084;2022-11-20T13:13:22;13.23;;;5.97;;
72801;SDS011;61891;55.818;37.084;2022-11-20T13:16:12;12.63;;;5.65;;
72801;SDS011;61891;55.818;37.084;2022-11-20T13:18:53;10.25;;;4.78;;
72801;SDS011;61891;55.818;37.084;2022-11-20T13:21:34;12.13;;;5.80;;
72801;SDS011;61891;55.818;37.084;2022-11-20T13:24:20;12.57;;;5.90;;
72801;SDS011;61891;55.818;37.084;2022-11-20T13:27:26;14.52;;;6.53;;
72801;SDS011;61891;55.818;37.084;2022-11-20T13:29:47;11.50;;;5.45;;
72801;SDS011;61891;55.818;37.084;2022-11-20T13:32:48;8.82;;;4.53;;
72801;SDS011;61891;55.818;37.084;2022-11-20T13:35:22;15.38;;;6.95;;
72801;SDS011;61891;55.818;37.084;2022-11-20T13:38:04;14.02;;;6.47;;
72801;SDS011;61891;55.818;37.084;2022-11-20T13:40:37;13.00;;;6.53;;
72801;SDS011;61891;55.818;37.084;2022-11-20T13:46:01;13.88;;;5.97;;
72801;SDS011;61891;55.818;37.084;2022-11-20T13:48:30;15.07;;;6.53;;
72801;SDS011;61891;55.818;37.084;2022-11-20T13:51:07;13.77;;;5.68;;
72801;SDS011;61891;55.818;37.084;2022-11-20T13:53:52;18.25;;;7.47;;
72801;SDS011;61891;55.818;37.084;2022-11-20T14:02:36;16.30;;;7.75;;
72801;SDS011;61891;55.818;37.084;2022-11-20T14:05:02;15.88;;;7.13;;
72801;SDS011;61891;55.818;37.084;2022-11-20T14:07:35;15.80;;;7.32;;
72801;SDS011;61891;55.818;37.084;2022-11-20T14:10:04;16.02;;;7.63;;
72801;SDS011;61891;55.818;37.084;2022-11-20T14:12:31;15.20;;;6.78;;
72801;SDS011;61891;55.818;37.084;2022-11-20T14:14:59;18.13;;;8.55;;
72801;SDS011;61891;55.818;37.084;2022-11-20T14:19:58;33.10;;;11.73;;
72801;SDS011;61891;55.818;37.084;2022-11-20T14:22:30;20.48;;;8.95;;
72801;SDS011;61891;55.818;37.084;2022-11-20T14:27:41;16.45;;;7.35;;
72801;SDS011;61891;55.818;37.084;2022-11-20T14:30:16;12.63;;;6.22;;
72801;SDS011;61891;55.818;37.084;2022-11-20T14:32:44;16.38;;;7.80;;
72801;SDS011;61891;55.818;37.084;2022-11-20T14:35:18;13.77;;;6.15;;
72801;SDS011;61891;55.818;37.084;2022-11-20T14:37:48;11.35;;;5.53;;
72801;SDS011;61891;55.818;37.084;2022-11-20T14:40:24;13.75;;;6.40;;
72801;SDS011;61891;55.818;37.084;2022-11-20T14:42:52;13.68;;;6.47;;
72801;SDS011;61891;55.818;37.084;2022-11-20T14:45:18;14.27;;;6.80;;
72801;SDS011;61891;55.818;37.084;2022-11-20T14:47:45;14.35;;;6.88;;
72801;SDS011;61891;55.818;37.084;2022-11-20T14:50:33;16.70;;;7.90;;
72801;SDS011;61891;55.818;37.084;2022-11-20T14:52:58;15.63;;;7.63;;
72801;SDS011;61891;55.818;37.084;2022-11-20T14:58:00;16.83;;;7.45;;
72801;SDS011;61891;55.818;37.084;2022-11-20T15:00:29;16.85;;;7.80;;
72801;SDS011;61891;55.818;37.084;2022-11-20T15:02:56;17.30;;;7.03;;
72801;SDS011;61891;55.818;37.084;2022-11-20T15:05:24;13.60;;;6.55;;
72801;SDS011;61891;55.818;37.084;2022-11-20T15:08:08;12.52;;;6.28;;
72801;SDS011;61891;55.818;37.084;2022-11-20T15:10:38;13.10;;;6.25;;
72801;SDS011;61891;55.818;37.084;2022-11-20T15:13:15;14.68;;;7.20;;
72801;SDS011;61891;55.818;37.084;2022-11-20T15:15:54;13.50;;;6.72;;
72801;SDS011;61891;55.818;37.084;2022-11-20T15:18:32;14.10;;;6.82;;
72801;SDS011;61891;55.818;37.084;2022-11-20T15:21:03;17.08;;;7.07;;
72801;SDS011;61891;55.818;37.084;2022-11-20T15:23:35;14.15;;;8.00;;
72801;SDS011;61891;55.818;37.084;2022-11-20T15:26:00;17.52;;;8.85;;
72801;SDS011;61891;55.818;37.084;2022-11-20T15:31:04;16.38;;;6.65;;
72801;SDS011;61891;55.818;37.084;2022-11-20T15:33:33;16.70;;;7.47;;
72801;SDS011;61891;55.818;37.084;2022-11-20T15:35:59;19.95;;;9.05;;
72801;SDS011;61891;55.818;37.084;2022-11-20T15:38:25;15.63;;;8.15;;
72801;SDS011;61891;55.818;37.084;2022-11-20T15:40:51;15.13;;;6.90;;
72801;SDS011;61891;55.818;37.084;2022-11-20T15:43:17;16.02;;;7.97;;
72801;SDS011;61891;55.818;37.084;2022-11-20T15:45:44;17.13;;;7.68;;
72801;SDS011;61891;55.818;37.084;2022-11-20T15:48:16;17.90;;;7.53;;
72801;SDS011;61891;55.818;37.084;2022-11-20T15:53:43;17.00;;;8.18;;
72801;SDS011;61891;55.818;37.084;2022-11-20T15:56:09;14.18;;;7.30;;
72801;SDS011;61891;55.818;37.084;2022-11-20T15:58:37;18.30;;;8.40;;
72801;SDS011;61891;55.818;37.084;2022-11-20T16:01:03;15.23;;;6.95;;
72801;SDS011;61891;55.818;37.084;2022-11-20T16:03:29;17.20;;;7.32;;
72801;SDS011;61891;55.818;37.084;2022-11-20T16:05:55;14.68;;;6.95;;
72801;SDS011;61891;55.818;37.084;2022-11-20T16:08:21;14.25;;;6.82;;
72801;SDS011;61891;55.818;37.084;2022-11-20T16:10:46;15.27;;;7.43;;
72801;SDS011;61891;55.818;37.084;2022-11-20T16:13:16;16.80;;;8.27;;
72801;SDS011;61891;55.818;37.084;2022-11-20T16:16:02;15.13;;;7.35;;
72801;SDS011;61891;55.818;37.084;2022-11-20T16:18:30;15.63;;;7.88;;
72801;SDS011;61891;55.818;37.084;2022-11-20T16:20:57;14.68;;;7.20;;
72801;SDS011;61891;55.818;37.084;2022-11-20T16:23:22;16.10;;;6.65;;
72801;SDS011;61891;55.818;37.084;2022-11-20T16:25:49;13.90;;;6.95;;
72801;SDS011;61891;55.818;37.084;2022-11-20T16:28:15;15.32;;;7.53;;
72801;SDS011;61891;55.818;37.084;2022-11-20T16:30:42;14.10;;;6.85;;